Time;durP1;ratioP1;P1;durP2;ratioP2;P2;SDS_P1;SDS_P2;PMS_P1;PMS_P2;Temp;Humidity;BMP_temperature;BMP_pressure;BME280_temperature;BME280_humidity;BME280_pressure;Samples;Min_cycle;Max_cycle;Signal;HPM_P1;HPM_P2
2023/09/16 03:00:36;;;;;;;13.52;7.72;;;20.00;93.00;;;;;;5051981;28;20062;-86
2023/09/16 03:03:02;;;;;;;15.35;8.30;;;20.00;93.00;;;;;;5047583;28;20033;-85
2023/09/16 03:05:29;;;;;;;14.38;8.85;;;20.00;93.00;;;;;;5068386;28;20033;-85
2023/09/16 03:07:55;;;;;;;13.02;7.35;;;20.00;93.00;;;;;;5058376;28;20028;-85
2023/09/16 03:10:20;;;;;;;13.98;8.23;;;19.90;92.90;;;;;;5058082;28;20032;-86
2023/09/16 03:12:46;;;;;;;13.82;7.65;;;19.90;92.90;;;;;;5051867;28;20444;-85
2023/09/16 03:15:11;;;;;;;15.75;8.18;;;20.00;92.90;;;;;;5056601;28;20078;-84
2023/09/16 03:17:37;;;;;;;12.95;7.95;;;19.90;92.90;;;;;;5051013;28;20063;-85
2023/09/16 03:20:03;;;;;;;17.48;7.53;;;20.00;92.90;;;;;;5050344;28;20103;-85
2023/09/16 03:22:29;;;;;;;12.30;7.50;;;19.90;92.90;;;;;;5054668;28;20021;-85
2023/09/16 03:24:55;;;;;;;13.07;7.55;;;20.00;92.90;;;;;;5046330;28;20027;-84
2023/09/16 03:27:21;;;;;;;13.50;7.28;;;20.00;92.90;;;;;;5050564;28;20028;-85
2023/09/16 03:29:46;;;;;;;14.23;7.70;;;20.00;92.90;;;;;;5047638;28;20526;-85
2023/09/16 03:32:12;;;;;;;15.98;7.28;;;19.90;92.90;;;;;;5054369;28;20028;-85
2023/09/16 03:34:37;;;;;;;13.15;7.22;;;20.00;92.90;;;;;;5047286;28;20131;-85
2023/09/16 03:37:03;;;;;;;13.02;7.47;;;20.00;92.90;;;;;;5047491;28;20398;-86
2023/09/16 03:39:29;;;;;;;13.38;7.97;;;19.90;92.90;;;;;;5047898;28;20025;-85
2023/09/16 03:41:54;;;;;;;12.57;7.57;;;19.90;92.90;;;;;;5050756;28;20029;-85
2023/09/16 03:44:20;;;;;;;13.65;7.78;;;19.90;92.90;;;;;;5054311;28;20086;-84
2023/09/16 03:46:47;;;;;;;13.57;8.13;;;19.90;92.90;;;;;;5066293;28;20082;-86
2023/09/16 03:49:12;;;;;;;11.38;7.28;;;19.90;92.90;;;;;;5049093;28;20025;-85
2023/09/16 03:51:39;;;;;;;12.82;6.90;;;19.90;92.90;;;;;;5051554;28;20032;-84
2023/09/16 03:54:06;;;;;;;13.95;7.43;;;19.90;92.90;;;;;;5051220;28;20025;-85
2023/09/16 03:56:35;;;;;;;13.60;8.15;;;19.90;92.80;;;;;;5065370;28;20497;-85
2023/09/16 03:59:01;;;;;;;13.80;7.95;;;19.90;92.90;;;;;;5064614;28;20059;-86
2023/09/16 04:01:26;;;;;;;12.32;7.07;;;19.90;92.90;;;;;;5047042;28;20044;-85
2023/09/16 04:03:54;;;;;;;12.20;7.43;;;20.00;92.90;;;;;;5046962;28;20657;-85
2023/09/16 04:06:20;;;;;;;12.80;6.93;;;19.90;92.90;;;;;;5044320;28;20033;-86
2023/09/16 04:08:46;;;;;;;12.35;7.00;;;19.90;92.90;;;;;;5041658;28;20035;-85
2023/09/16 04:11:12;;;;;;;12.43;7.53;;;19.90;92.90;;;;;;5051926;28;20024;-85
2023/09/16 04:13:37;;;;;;;12.75;7.60;;;19.90;92.90;;;;;;5043646;28;20028;-85
2023/09/16 04:16:03;;;;;;;14.90;8.25;;;19.90;92.80;;;;;;5043004;28;20021;-85
2023/09/16 04:18:29;;;;;;;14.95;8.48;;;19.90;92.80;;;;;;5053170;28;20074;-84
2023/09/16 04:20:55;;;;;;;25.58;9.00;;;19.90;92.80;;;;;;5052209;28;20025;-84
2023/09/16 04:23:24;;;;;;;15.73;8.52;;;19.90;92.80;;;;;;5052415;28;20021;-85
2023/09/16 04:25:57;;;;;;;16.85;9.80;;;19.90;92.90;;;;;;5049511;28;20108;-85
2023/09/16 04:28:23;;;;;;;14.02;8.43;;;19.90;92.80;;;;;;5044327;28;20035;-85
2023/09/16 04:30:50;;;;;;;14.85;8.43;;;19.90;93.20;;;;;;5054995;28;20043;-86
2023/09/16 04:33:16;;;;;;;14.95;8.35;;;19.90;92.80;;;;;;5048848;28;20024;-85
2023/09/16 04:35:45;;;;;;;13.82;8.55;;;19.90;92.80;;;;;;5051078;28;20019;-85
2023/09/16 04:38:11;;;;;;;17.98;8.80;;;19.90;93.20;;;;;;5046518;28;20104;-85
2023/09/16 04:40:38;;;;;;;11.25;7.30;;;19.90;92.80;;;;;;5074779;28;20021;-85
2023/09/16 04:43:04;;;;;;;14.93;9.07;;;19.90;92.80;;;;;;5050958;28;20017;-85
2023/09/16 04:45:31;;;;;;;18.52;9.20;;;19.90;92.80;;;;;;5047426;28;20450;-84
2023/09/16 04:47:57;;;;;;;18.45;9.65;;;19.90;92.80;;;;;;5053756;28;20024;-85
2023/09/16 04:50:23;;;;;;;14.70;8.20;;;19.90;92.80;;;;;;5064383;28;20039;-85
2023/09/16 04:52:48;;;;;;;17.38;8.73;;;19.90;92.80;;;;;;5051968;28;20028;-85
2023/09/16 04:55:14;;;;;;;13.32;8.25;;;19.90;92.80;;;;;;5049976;28;20021;-84
2023/09/16 04:57:40;;;;;;;17.23;8.80;;;19.90;92.70;;;;;;5047842;28;20029;-83
2023/09/16 05:00:07;;;;;;;18.80;9.13;;;19.90;92.70;;;;;;5054353;28;20020;-84
2023/09/16 05:02:33;;;;;;;15.30;8.40;;;19.90;92.70;;;;;;5048814;28;20029;-84
2023/09/16 05:05:00;;;;;;;15.95;8.60;;;19.90;92.70;;;;;;5063145;28;20021;-84
2023/09/16 05:07:26;;;;;;;16.25;8.75;;;19.90;92.70;;;;;;5062095;28;20021;-85
2023/09/16 05:09:51;;;;;;;16.30;8.65;;;19.90;92.70;;;;;;5045457;28;20029;-84
2023/09/16 05:12:17;;;;;;;15.32;9.00;;;19.90;92.70;;;;;;5061731;28;20377;-84
2023/09/16 05:14:43;;;;;;;13.82;8.68;;;19.90;92.70;;;;;;5065181;28;20024;-85
2023/09/16 05:17:08;;;;;;;18.70;8.85;;;19.90;92.70;;;;;;5046465;28;20029;-84
2023/09/16 05:19:34;;;;;;;12.88;8.25;;;19.90;92.70;;;;;;5044358;28;20453;-84
2023/09/16 05:21:59;;;;;;;14.15;8.63;;;19.90;92.60;;;;;;5047843;28;20013;-84
2023/09/16 05:24:29;;;;;;;14.77;8.93;;;19.90;92.60;;;;;;5046195;28;20435;-85
2023/09/16 05:26:55;;;;;;;15.82;8.13;;;19.90;92.60;;;;;;5065459;28;20036;-84
2023/09/16 05:29:20;;;;;;;17.05;9.60;;;19.90;92.60;;;;;;5067891;28;20377;-84
2023/09/16 05:31:46;;;;;;;15.45;8.63;;;19.80;92.60;;;;;;5042123;28;20027;-84
2023/09/16 05:34:12;;;;;;;17.00;8.93;;;19.90;92.60;;;;;;5041612;28;20028;-84
2023/09/16 05:36:37;;;;;;;15.57;8.32;;;19.80;92.60;;;;;;5063769;28;20025;-84
2023/09/16 05:39:03;;;;;;;15.35;8.63;;;19.90;92.60;;;;;;5050203;28;20034;-84
2023/09/16 05:41:29;;;;;;;16.08;7.97;;;19.80;92.60;;;;;;5063942;28;20107;-85
2023/09/16 05:43:54;;;;;;;15.68;8.18;;;19.80;92.60;;;;;;5065192;28;20021;-84
2023/09/16 05:46:20;;;;;;;16.58;7.40;;;19.90;92.60;;;;;;5044708;28;20025;-85
2023/09/16 05:48:46;;;;;;;15.60;8.43;;;19.90;92.60;;;;;;5049295;28;20063;-84
2023/09/16 05:51:11;;;;;;;11.85;7.35;;;19.80;92.60;;;;;;5065405;28;20028;-85
2023/09/16 05:53:39;;;;;;;15.02;7.82;;;19.80;92.60;;;;;;5041672;28;20040;-85
2023/09/16 05:56:04;;;;;;;13.93;7.55;;;19.90;92.60;;;;;;5061134;28;20716;-84
2023/09/16 05:58:31;;;;;;;15.23;7.90;;;19.90;92.60;;;;;;5060416;28;20048;-84
2023/09/16 06:00:57;;;;;;;17.52;7.82;;;19.80;92.50;;;;;;5044190;28;20028;-84
2023/09/16 06:03:23;;;;;;;14.20;8.05;;;19.80;92.50;;;;;;5042939;28;20033;-84
2023/09/16 06:05:49;;;;;;;14.35;8.13;;;19.80;92.50;;;;;;5050653;28;20032;-85
2023/09/16 06:08:14;;;;;;;14.98;8.25;;;19.90;92.60;;;;;;5043592;28;20082;-84
2023/09/16 06:10:40;;;;;;;12.35;7.18;;;19.80;92.50;;;;;;5044159;28;20021;-84
2023/09/16 06:13:05;;;;;;;14.15;8.23;;;19.90;92.60;;;;;;5066723;28;20028;-84
2023/09/16 06:15:31;;;;;;;13.10;7.90;;;19.90;92.60;;;;;;5044325;28;20389;-85
2023/09/16 06:17:57;;;;;;;13.77;8.15;;;19.90;92.60;;;;;;5052004;28;20639;-85
2023/09/16 06:20:22;;;;;;;16.73;8.48;;;19.80;92.50;;;;;;5048257;28;20035;-84
2023/09/16 06:22:48;;;;;;;13.82;8.48;;;19.90;92.60;;;;;;5046502;28;20032;-84
2023/09/16 06:25:14;;;;;;;16.80;9.35;;;19.80;92.50;;;;;;5057551;28;20075;-84
2023/09/16 06:27:40;;;;;;;17.13;9.90;;;19.80;92.50;;;;;;5044116;28;20029;-84
2023/09/16 06:30:06;;;;;;;17.80;9.70;;;19.90;92.60;;;;;;5043865;28;20035;-84
2023/09/16 06:32:32;;;;;;;16.85;8.95;;;19.80;92.50;;;;;;5061111;28;20024;-85
2023/09/16 06:34:57;;;;;;;14.30;8.07;;;19.80;92.60;;;;;;5044977;28;20028;-84
2023/09/16 06:37:23;;;;;;;15.95;8.65;;;19.90;92.60;;;;;;5056030;28;20067;-84
2023/09/16 06:39:48;;;;;;;13.32;8.70;;;19.90;92.60;;;;;;5058701;28;20472;-84
2023/09/16 06:42:14;;;;;;;15.48;8.73;;;19.90;92.60;;;;;;5060563;28;20517;-84
2023/09/16 06:44:40;;;;;;;16.60;8.15;;;19.90;92.60;;;;;;5044073;28;20691;-86
2023/09/16 06:47:05;;;;;;;16.08;8.57;;;19.90;92.60;;;;;;5059514;28;20094;-85
2023/09/16 06:49:31;;;;;;;13.05;8.23;;;19.90;92.60;;;;;;5043056;28;20075;-84
2023/09/16 06:51:56;;;;;;;15.20;8.35;;;19.80;92.60;;;;;;5060232;28;20050;-84
2023/09/16 06:54:22;;;;;;;19.42;8.98;;;19.90;92.60;;;;;;5060146;28;20025;-84
2023/09/16 06:56:48;;;;;;;14.93;8.52;;;19.90;92.60;;;;;;5060491;28;20021;-85
2023/09/16 06:59:13;;;;;;;19.95;8.88;;;19.90;92.70;;;;;;5043748;28;20044;-85
2023/09/16 07:01:39;;;;;;;16.33;10.10;;;19.90;92.70;;;;;;5061726;28;20056;-85
2023/09/16 07:04:05;;;;;;;15.50;9.50;;;19.90;93.00;;;;;;5042794;28;20041;-84
2023/09/16 07:06:30;;;;;;;17.42;10.00;;;19.90;92.70;;;;;;5043703;28;20051;-84
2023/09/16 07:08:56;;;;;;;15.77;8.75;;;19.90;92.70;;;;;;5028360;28;20033;-85
2023/09/16 07:11:22;;;;;;;15.60;9.60;;;19.90;92.70;;;;;;5031075;28;20083;-85
2023/09/16 07:13:47;;;;;;;15.85;10.15;;;19.90;92.70;;;;;;5024091;28;20025;-84
2023/09/16 07:16:13;;;;;;;21.08;10.70;;;19.90;92.70;;;;;;5020287;28;20033;-85
2023/09/16 07:18:39;;;;;;;17.42;10.15;;;19.80;92.70;;;;;;5029234;28;20120;-84
2023/09/16 07:21:05;;;;;;;18.65;10.90;;;19.90;92.70;;;;;;5041539;28;20557;-84
2023/09/16 07:23:31;;;;;;;20.30;10.68;;;19.90;92.70;;;;;;5040615;28;20026;-85
2023/09/16 07:25:58;;;;;;;16.33;9.80;;;19.80;92.70;;;;;;5025717;28;20374;-84
2023/09/16 07:28:26;;;;;;;18.58;9.18;;;19.90;92.70;;;;;;5021390;28;20025;-84
2023/09/16 07:30:52;;;;;;;19.52;9.80;;;19.90;92.70;;;;;;5038060;28;20037;-85
2023/09/16 07:33:18;;;;;;;17.02;10.18;;;19.90;92.70;;;;;;5042910;28;20021;-85
2023/09/16 07:35:43;;;;;;;20.17;10.35;;;19.90;92.70;;;;;;5037250;28;20568;-85
2023/09/16 07:38:09;;;;;;;17.58;9.85;;;19.90;92.80;;;;;;5021263;28;20025;-84
2023/09/16 07:40:37;;;;;;;19.48;11.20;;;19.90;92.80;;;;;;5027087;28;20040;-86
2023/09/16 07:43:06;;;;;;;17.60;8.88;;;19.90;92.80;;;;;;5024373;28;20382;-86
2023/09/16 07:45:36;;;;;;;13.65;8.27;;;20.00;92.80;;;;;;5026565;28;20021;-85
2023/09/16 07:48:02;;;;;;;17.27;9.82;;;19.90;92.80;;;;;;5025082;28;20033;-86
2023/09/16 07:50:28;;;;;;;14.73;8.60;;;19.90;92.80;;;;;;5028400;28;20485;-84
2023/09/16 07:52:53;;;;;;;19.25;8.40;;;19.90;92.80;;;;;;5030308;28;20728;-85
2023/09/16 07:55:19;;;;;;;20.08;10.52;;;19.90;92.80;;;;;;5031356;28;20021;-85
2023/09/16 07:57:44;;;;;;;15.05;8.18;;;19.90;92.80;;;;;;5028027;28;20021;-86
2023/09/16 08:00:10;;;;;;;18.75;9.93;;;19.90;92.80;;;;;;5031251;28;20566;-84
2023/09/16 08:02:36;;;;;;;15.90;9.05;;;20.00;92.80;;;;;;5035553;28;20623;-86
2023/09/16 08:05:02;;;;;;;21.10;11.05;;;20.00;92.80;;;;;;5051629;28;20024;-85
2023/09/16 08:07:28;;;;;;;15.77;9.50;;;19.90;92.80;;;;;;5049909;28;20024;-85
2023/09/16 08:09:54;;;;;;;17.23;10.00;;;19.90;92.90;;;;;;5049140;28;20078;-86
2023/09/16 08:12:23;;;;;;;18.65;11.30;;;19.90;92.90;;;;;;5047591;28;20404;-85
2023/09/16 08:14:49;;;;;;;19.10;9.93;;;19.90;92.90;;;;;;5047779;28;20119;-86
2023/09/16 08:17:14;;;;;;;18.30;9.60;;;19.90;92.90;;;;;;5049776;28;20087;-86
2023/09/16 08:19:40;;;;;;;17.20;9.63;;;19.90;92.90;;;;;;5070094;28;20028;-88
2023/09/16 08:22:06;;;;;;;22.13;10.90;;;20.00;92.90;;;;;;5057030;28;20025;-85
2023/09/16 08:24:31;;;;;;;16.92;9.80;;;19.90;92.90;;;;;;5053839;28;20649;-85
2023/09/16 08:26:57;;;;;;;20.30;11.40;;;19.90;92.90;;;;;;5052507;28;20186;-86
2023/09/16 08:29:23;;;;;;;20.65;8.68;;;19.90;92.90;;;;;;5056628;28;20031;-86
2023/09/16 08:31:48;;;;;;;16.77;10.02;;;19.90;92.90;;;;;;5033490;28;20041;-86
2023/09/16 08:34:14;;;;;;;21.95;10.40;;;19.90;92.90;;;;;;5048391;28;20025;-86
2023/09/16 08:36:39;;;;;;;21.17;11.00;;;19.90;92.90;;;;;;5045409;28;20071;-85
2023/09/16 08:39:05;;;;;;;15.85;9.63;;;20.00;93.00;;;;;;5050178;28;20504;-87
2023/09/16 08:41:47;;;;;;;16.92;9.95;;;20.00;93.00;;;;;;5047231;28;20035;-85
2023/09/16 08:44:14;;;;;;;18.98;11.13;;;20.00;93.00;;;;;;5049078;28;20021;-85
2023/09/16 08:46:48;;;;;;;21.00;11.95;;;20.00;93.00;;;;;;5041752;28;20465;-86
2023/09/16 08:49:18;;;;;;;20.85;10.82;;;20.00;93.00;;;;;;5063567;28;20020;-86
2023/09/16 08:51:48;;;;;;;22.17;12.45;;;20.00;93.00;;;;;;5040130;28;20053;-86
2023/09/16 08:54:18;;;;;;;20.50;11.63;;;20.00;93.00;;;;;;5049929;28;20054;-85
2023/09/16 08:56:44;;;;;;;20.52;12.85;;;20.00;93.00;;;;;;5064282;28;20055;-85
2023/09/16 08:59:11;;;;;;;19.10;11.82;;;19.90;93.30;;;;;;5048850;28;20032;-85
2023/09/16 09:01:37;;;;;;;16.00;9.85;;;20.00;93.00;;;;;;5043477;28;20542;-85
2023/09/16 09:04:04;;;;;;;17.42;9.98;;;20.00;93.00;;;;;;5061853;28;20028;-86
2023/09/16 09:06:30;;;;;;;19.67;10.70;;;20.00;93.10;;;;;;5062030;28;20024;-85
2023/09/16 09:08:56;;;;;;;20.60;10.55;;;20.00;93.10;;;;;;5047359;28;20048;-85
2023/09/16 09:11:23;;;;;;;18.48;9.88;;;20.00;93.10;;;;;;5048427;28;20059;-85
2023/09/16 09:13:50;;;;;;;21.90;9.85;;;20.00;93.10;;;;;;5043535;28;20036;-87
2023/09/16 09:16:18;;;;;;;17.65;10.15;;;20.00;93.10;;;;;;5041144;28;20046;-87
2023/09/16 09:18:46;;;;;;;20.17;11.45;;;20.00;93.10;;;;;;5042720;28;20052;-86
2023/09/16 09:21:12;;;;;;;16.80;11.15;;;20.00;93.10;;;;;;5045994;28;20027;-85
2023/09/16 09:23:37;;;;;;;22.15;11.93;;;20.00;93.10;;;;;;5062542;28;20021;-85
2023/09/16 09:26:04;;;;;;;21.15;12.60;;;20.00;93.10;;;;;;5041854;28;20085;-85
2023/09/16 09:28:32;;;;;;;21.58;10.15;;;20.00;93.10;;;;;;5047609;28;20032;-86
2023/09/16 09:30:58;;;;;;;20.27;10.82;;;20.00;93.20;;;;;;5040577;28;20040;-86
2023/09/16 09:33:26;;;;;;;21.48;11.27;;;20.00;93.20;;;;;;5049273;28;20024;-86
2023/09/16 09:36:10;;;;;;;21.45;11.43;;;20.00;93.20;;;;;;5058677;28;20029;-86
2023/09/16 09:38:45;;;;;;;22.92;12.68;;;20.10;93.20;;;;;;5047363;28;20040;-86
2023/09/16 09:41:11;;;;;;;17.67;11.05;;;20.00;93.20;;;;;;5060539;28;20070;-85
2023/09/16 09:43:37;;;;;;;22.40;11.98;;;20.10;93.30;;;;;;5039785;28;20022;-86
2023/09/16 09:46:03;;;;;;;20.55;12.57;;;20.00;93.30;;;;;;5067408;28;20032;-85
2023/09/16 09:48:30;;;;;;;18.08;11.32;;;20.10;93.30;;;;;;5049444;28;20032;-86
2023/09/16 09:50:57;;;;;;;16.75;11.18;;;20.10;93.30;;;;;;5042716;28;20107;-86
2023/09/16 09:53:24;;;;;;;21.75;12.55;;;20.10;93.30;;;;;;5070881;28;20024;-85
2023/09/16 09:55:50;;;;;;;24.23;13.00;;;20.10;93.30;;;;;;5046035;28;20025;-86
2023/09/16 09:58:18;;;;;;;19.90;10.95;;;20.10;93.40;;;;;;5050663;28;20016;-85
2023/09/16 10:00:50;;;;;;;17.70;11.05;;;20.10;93.40;;;;;;5049907;28;20025;-86
2023/09/16 10:03:21;;;;;;;18.50;9.68;;;20.10;93.40;;;;;;4997883;28;1140830;-87
2023/09/16 10:05:47;;;;;;;23.63;12.88;;;20.10;93.40;;;;;;5036703;28;20025;-85
2023/09/16 10:08:13;;;;;;;20.55;11.10;;;20.10;93.80;;;;;;5040146;28;20090;-85
2023/09/16 10:10:40;;;;;;;21.95;11.77;;;20.10;93.50;;;;;;5034865;28;20094;-86
2023/09/16 10:13:08;;;;;;;19.88;11.75;;;20.10;93.50;;;;;;5037775;28;20526;-86
2023/09/16 10:15:36;;;;;;;17.88;10.93;;;20.10;93.50;;;;;;5042038;28;20020;-87
2023/09/16 10:18:03;;;;;;;18.75;10.18;;;20.10;93.50;;;;;;5035169;28;20053;-86
2023/09/16 10:20:31;;;;;;;15.00;9.63;;;20.10;93.50;;;;;;5034978;28;20017;-87
2023/09/16 10:22:59;;;;;;;19.48;10.27;;;20.10;93.50;;;;;;5040431;28;20119;-86
2023/09/16 10:25:28;;;;;;;19.33;11.23;;;20.20;93.50;;;;;;5046028;28;20267;-87
2023/09/16 10:28:03;;;;;;;18.27;10.33;;;20.20;93.60;;;;;;5055347;28;20021;-88
2023/09/16 10:30:31;;;;;;;14.43;9.25;;;20.20;93.60;;;;;;5045351;28;20031;-88
2023/09/16 10:33:10;;;;;;;17.77;10.05;;;20.20;93.60;;;;;;5044458;28;20119;-86
2023/09/16 10:35:41;;;;;;;20.05;9.40;;;20.20;93.60;;;;;;5041496;28;20368;-86
2023/09/16 10:38:10;;;;;;;12.23;7.68;;;20.20;93.60;;;;;;5040139;28;20163;-86
2023/09/16 10:40:37;;;;;;;19.20;10.90;;;20.20;93.60;;;;;;5037983;28;20126;-86
2023/09/16 10:43:04;;;;;;;17.23;9.13;;;20.20;93.60;;;;;;5043011;28;20021;-86
2023/09/16 10:45:31;;;;;;;20.75;9.38;;;20.20;93.60;;;;;;5042751;28;20512;-86
2023/09/16 10:48:01;;;;;;;15.93;9.30;;;20.20;93.60;;;;;;5035742;28;20032;-86
2023/09/16 10:50:30;;;;;;;14.27;8.65;;;20.20;93.60;;;;;;5042880;28;20025;-86
2023/09/16 10:53:03;;;;;;;21.77;9.55;;;20.20;93.60;;;;;;5043863;28;20562;-87
2023/09/16 10:55:40;;;;;;;16.75;10.18;;;20.20;93.60;;;;;;5034021;28;20037;-86
2023/09/16 10:58:15;;;;;;;18.10;10.70;;;20.20;93.60;;;;;;5041504;28;20036;-85
2023/09/16 11:00:50;;;;;;;15.88;10.13;;;20.20;93.60;;;;;;5042787;28;20037;-86
2023/09/16 11:03:17;;;;;;;14.57;7.82;;;20.20;93.60;;;;;;5042459;28;20032;-87
2023/09/16 11:05:43;;;;;;;12.90;7.45;;;20.20;93.60;;;;;;5043816;28;20021;-88
2023/09/16 11:08:12;;;;;;;17.55;11.00;;;20.20;94.00;;;;;;5045239;28;20125;-86
2023/09/16 11:10:38;;;;;;;18.48;9.40;;;20.40;94.00;;;;;;5050273;28;20113;-86
2023/09/16 11:13:04;;;;;;;18.15;10.45;;;20.20;93.60;;;;;;5037609;28;20526;-86
2023/09/16 11:15:32;;;;;;;14.95;9.35;;;20.30;93.70;;;;;;5044260;28;20110;-84
2023/09/16 11:18:08;;;;;;;12.32;8.27;;;20.30;93.70;;;;;;5045755;28;20025;-85
2023/09/16 11:20:36;;;;;;;14.52;9.55;;;20.30;93.70;;;;;;5039002;28;20485;-86
2023/09/16 11:23:05;;;;;;;16.48;8.20;;;20.30;93.70;;;;;;5038688;28;20059;-85
2023/09/16 11:25:39;;;;;;;18.38;10.75;;;20.30;93.70;;;;;;5046148;28;20044;-85
2023/09/16 11:28:18;;;;;;;16.75;8.80;;;20.30;93.70;;;;;;5041490;28;20393;-86
2023/09/16 11:31:03;;;;;;;12.77;8.00;;;20.30;93.70;;;;;;5047414;28;20025;-86
2023/09/16 11:33:33;;;;;;;14.25;8.18;;;20.30;93.70;;;;;;5047942;28;20037;-85
2023/09/16 11:36:19;;;;;;;12.55;7.90;;;20.30;93.70;;;;;;5038288;28;20029;-85
2023/09/16 11:39:06;;;;;;;14.05;8.48;;;20.30;93.70;;;;;;5037016;28;20034;-85
2023/09/16 11:41:32;;;;;;;15.70;8.10;;;20.30;93.70;;;;;;5041246;28;20025;-85
2023/09/16 11:43:58;;;;;;;16.50;8.27;;;20.30;93.70;;;;;;5042439;28;20417;-87
2023/09/16 11:46:25;;;;;;;11.88;7.80;;;20.30;93.70;;;;;;5049956;28;20031;-86
2023/09/16 11:48:56;;;;;;;10.32;6.63;;;20.30;93.70;;;;;;5044314;28;20021;-86
2023/09/16 11:51:24;;;;;;;13.77;6.75;;;20.30;93.70;;;;;;5040942;28;20097;-85
2023/09/16 11:53:51;;;;;;;10.68;5.55;;;20.30;93.70;;;;;;5048540;28;20052;-86
2023/09/16 11:56:19;;;;;;;10.35;6.35;;;20.30;93.70;;;;;;5040936;28;20021;-86
2023/09/16 11:58:49;;;;;;;10.93;7.00;;;20.30;93.70;;;;;;5041048;28;20024;-86
2023/09/16 12:01:20;;;;;;;9.68;5.43;;;20.30;93.70;;;;;;5043953;28;20113;-87
2023/09/16 12:03:47;;;;;;;11.73;6.43;;;20.40;93.70;;;;;;5046682;28;20041;-86
2023/09/16 12:06:14;;;;;;;9.20;6.13;;;20.40;93.70;;;;;;5042049;28;20024;-86
2023/09/16 12:08:42;;;;;;;8.13;5.28;;;20.40;93.70;;;;;;5041066;28;20025;-86
2023/09/16 12:11:08;;;;;;;8.35;6.18;;;20.40;93.70;;;;;;5038735;28;20131;-86
2023/09/16 12:13:34;;;;;;;12.38;5.82;;;20.40;93.70;;;;;;5048326;28;20099;-86
2023/09/16 12:15:59;;;;;;;10.20;5.55;;;20.40;93.70;;;;;;5044371;28;20060;-86
2023/09/16 12:18:25;;;;;;;9.05;6.03;;;20.40;93.70;;;;;;5042170;28;20098;-87
2023/09/16 12:20:54;;;;;;;7.82;4.90;;;20.40;93.70;;;;;;5038980;28;20045;-86
2023/09/16 12:23:20;;;;;;;9.20;5.95;;;20.40;93.70;;;;;;5046057;28;20032;-87
2023/09/16 12:25:46;;;;;;;8.15;5.07;;;20.40;93.70;;;;;;5045001;28;20033;-86
2023/09/16 12:28:32;;;;;;;9.35;5.28;;;20.40;93.70;;;;;;5046021;28;20112;-85
2023/09/16 12:30:57;;;;;;;3.47;2.85;;;20.40;93.70;;;;;;5048225;28;20037;-88
2023/09/16 12:33:36;;;;;;;4.60;3.30;;;20.40;93.70;;;;;;5037760;28;20033;-86
2023/09/16 12:36:03;;;;;;;11.57;4.55;;;20.40;93.70;;;;;;5045380;28;20025;-87
2023/09/16 12:38:30;;;;;;;7.28;3.08;;;20.50;93.70;;;;;;5044789;28;20430;-86
2023/09/16 12:40:56;;;;;;;3.95;3.00;;;20.40;93.70;;;;;;5047614;28;20024;-87
2023/09/16 12:43:22;;;;;;;5.53;2.90;;;20.40;93.70;;;;;;5042494;28;20022;-86
2023/09/16 12:45:48;;;;;;;5.30;2.85;;;20.50;93.70;;;;;;5044442;28;20021;-86
2023/09/16 12:48:14;;;;;;;3.33;2.28;;;20.50;93.70;;;;;;5047710;28;20386;-86
2023/09/16 12:50:40;;;;;;;5.00;2.05;;;20.50;93.70;;;;;;5044399;28;20510;-87
2023/09/16 12:53:06;;;;;;;3.30;2.28;;;20.50;93.70;;;;;;5037035;28;20021;-86
2023/09/16 12:55:32;;;;;;;3.20;2.00;;;20.50;93.70;;;;;;5059816;28;20017;-87
2023/09/16 12:57:58;;;;;;;2.42;1.83;;;20.50;93.70;;;;;;5038606;28;20025;-87
2023/09/16 13:00:25;;;;;;;2.60;1.98;;;20.50;93.70;;;;;;5042470;28;20021;-86
2023/09/16 13:02:52;;;;;;;2.95;1.90;;;20.50;93.70;;;;;;5044038;28;20025;-87
2023/09/16 13:05:29;;;;;;;7.43;2.95;;;20.50;93.70;;;;;;5026286;28;20481;-85
2023/09/16 13:07:56;;;;;;;6.03;2.83;;;20.50;93.70;;;;;;5025214;28;20112;-87
2023/09/16 13:10:23;;;;;;;8.20;2.10;;;20.50;93.70;;;;;;5026010;28;20029;-87
2023/09/16 13:12:50;;;;;;;4.15;2.47;;;20.50;93.70;;;;;;5039181;28;20078;-87
2023/09/16 13:15:21;;;;;;;6.65;2.22;;;20.50;93.70;;;;;;5028088;28;20036;-87
2023/09/16 13:17:49;;;;;;;2.10;1.90;;;20.50;93.70;;;;;;5026065;28;20109;-86
2023/09/16 13:20:18;;;;;;;2.85;1.90;;;20.50;93.70;;;;;;5023251;28;20026;-86
2023/09/16 13:22:46;;;;;;;3.63;2.10;;;20.50;93.60;;;;;;5023768;28;20474;-86
2023/09/16 13:25:35;;;;;;;5.45;1.98;;;20.50;93.60;;;;;;5042988;28;20022;-87
2023/09/16 13:28:17;;;;;;;4.60;1.50;;;20.50;93.60;;;;;;5029451;28;20021;-86
2023/09/16 13:30:48;;;;;;;3.95;2.20;;;20.50;93.60;;;;;;5028780;28;20021;-86
2023/09/16 13:33:14;;;;;;;3.25;2.28;;;20.50;93.60;;;;;;5043549;28;20022;-86
2023/09/16 13:35:42;;;;;;;3.95;1.80;;;20.50;93.60;;;;;;5026234;28;20043;-87
2023/09/16 13:38:09;;;;;;;3.90;2.15;;;20.50;93.60;;;;;;5028113;28;20048;-86
2023/09/16 13:40:35;;;;;;;2.30;1.85;;;20.50;93.60;;;;;;5025000;28;20111;-86
2023/09/16 13:43:01;;;;;;;7.95;1.70;;;20.50;93.50;;;;;;5028990;28;20049;-86
2023/09/16 13:45:27;;;;;;;3.45;2.10;;;20.50;93.50;;;;;;5025105;28;20024;-86
2023/09/16 13:48:23;;;;;;;4.53;1.90;;;20.50;93.50;;;;;;5030181;28;20049;-85
2023/09/16 13:50:50;;;;;;;5.18;2.15;;;20.50;93.50;;;;;;5026716;28;20318;-86
2023/09/16 13:53:17;;;;;;;4.72;2.25;;;20.50;93.50;;;;;;5041904;28;20028;-87
2023/09/16 13:55:54;;;;;;;5.20;2.40;;;20.50;93.50;;;;;;5026508;28;20535;-87
2023/09/16 13:58:20;;;;;;;4.90;2.25;;;20.50;93.40;;;;;;5028944;28;20486;-86
2023/09/16 14:00:46;;;;;;;4.22;1.80;;;20.50;93.40;;;;;;5028059;28;20160;-87
2023/09/16 14:03:12;;;;;;;6.03;2.70;;;20.50;93.40;;;;;;5036473;28;20104;-86
2023/09/16 14:05:38;;;;;;;3.65;2.03;;;20.50;93.40;;;;;;5061825;28;20071;-87
2023/09/16 14:08:04;;;;;;;5.07;2.15;;;20.50;93.40;;;;;;5048645;28;20627;-86
2023/09/16 14:10:30;;;;;;;5.10;2.17;;;20.50;93.40;;;;;;5061208;28;20032;-86
2023/09/16 14:13:06;;;;;;;2.92;2.20;;;20.50;93.40;;;;;;5045776;28;20389;-86
2023/09/16 14:15:33;;;;;;;3.58;2.20;;;20.50;93.40;;;;;;5047021;28;20040;-86
2023/09/16 14:18:00;;;;;;;4.60;1.77;;;20.50;93.40;;;;;;5048247;28;20012;-86
2023/09/16 14:20:29;;;;;;;1.98;1.77;;;20.50;93.30;;;;;;5049479;28;20498;-86
2023/09/16 14:22:59;;;;;;;2.50;2.00;;;20.40;93.30;;;;;;5047239;28;20017;-86
2023/09/16 14:25:29;;;;;;;1.88;1.67;;;20.40;93.30;;;;;;5066572;28;20028;-86
2023/09/16 14:27:55;;;;;;;5.00;2.20;;;20.50;93.30;;;;;;5050224;28;20440;-86
2023/09/16 14:30:21;;;;;;;3.88;2.03;;;20.40;93.30;;;;;;5037152;28;20025;-85
2023/09/16 14:32:47;;;;;;;2.65;2.13;;;20.50;93.30;;;;;;5049176;28;20025;-86
2023/09/16 14:35:14;;;;;;;2.85;2.05;;;20.40;93.20;;;;;;5063236;28;20021;-86
2023/09/16 14:37:40;;;;;;;2.75;1.90;;;20.40;93.20;;;;;;5047614;28;20037;-85
2023/09/16 14:40:07;;;;;;;4.68;1.70;;;20.40;93.20;;;;;;5045871;28;20074;-84
2023/09/16 14:42:33;;;;;;;4.97;2.10;;;20.40;93.20;;;;;;5049321;28;20538;-86
2023/09/16 14:45:01;;;;;;;2.53;1.73;;;20.40;93.10;;;;;;5063101;28;20044;-86
2023/09/16 14:47:29;;;;;;;2.80;1.70;;;20.40;93.10;;;;;;5057376;28;20052;-86
2023/09/16 14:49:55;;;;;;;3.97;1.77;;;20.40;93.10;;;;;;5063410;28;20035;-87
2023/09/16 14:52:21;;;;;;;2.42;1.80;;;20.40;93.10;;;;;;5063632;28;20027;-87
2023/09/16 14:54:47;;;;;;;2.85;1.90;;;20.40;93.10;;;;;;5059133;28;20032;-86
2023/09/16 14:57:13;;;;;;;4.35;1.77;;;20.40;93.10;;;;;;5048709;28;20375;-86
2023/09/16 14:59:39;;;;;;;3.40;1.58;;;20.40;93.00;;;;;;5066980;28;20482;-90
2023/09/16 15:02:04;;;;;;;2.08;1.73;;;20.40;93.00;;;;;;5059955;28;20021;-87
2023/09/16 15:04:30;;;;;;;3.53;1.88;;;20.40;93.00;;;;;;5031233;28;20028;-88
2023/09/16 15:06:55;;;;;;;2.10;1.83;;;20.40;93.00;;;;;;5034438;28;20440;-88
2023/09/16 15:09:21;;;;;;;7.70;1.83;;;20.40;92.90;;;;;;5031476;28;20083;-88
2023/09/16 15:11:48;;;;;;;3.63;2.28;;;20.40;92.90;;;;;;5035631;28;20079;-87
2023/09/16 15:14:13;;;;;;;2.03;1.67;;;20.40;92.90;;;;;;5027418;28;20542;-87
2023/09/16 15:16:39;;;;;;;2.42;1.60;;;20.40;92.90;;;;;;5051926;28;20116;-88
2023/09/16 15:19:05;;;;;;;2.05;1.60;;;20.40;92.90;;;;;;5046036;28;20386;-87
2023/09/16 15:21:31;;;;;;;2.83;2.15;;;20.40;92.90;;;;;;5053499;28;20478;-88
2023/09/16 15:23:56;;;;;;;1.90;1.70;;;20.40;92.80;;;;;;5053766;28;20492;-86
2023/09/16 15:26:22;;;;;;;3.17;1.75;;;20.40;92.80;;;;;;5035437;28;20033;-86
2023/09/16 15:28:48;;;;;;;1.98;1.67;;;20.40;92.80;;;;;;5048747;28;20021;-87
2023/09/16 15:31:14;;;;;;;2.97;1.90;;;20.40;92.80;;;;;;5032741;28;20022;-86
2023/09/16 15:33:40;;;;;;;6.47;1.77;;;20.40;92.80;;;;;;5028702;28;20025;-85
2023/09/16 15:36:06;;;;;;;6.55;1.90;;;20.40;92.80;;;;;;5029544;28;20115;-87
2023/09/16 15:38:32;;;;;;;2.00;1.63;;;20.40;92.80;;;;;;5026974;28;20124;-85